createdAt,value
2018-10-16T00:00:57.714Z,16.93
2018-10-16T00:02:59.995Z,17.60
2018-10-16T00:05:02.249Z,24.17
2018-10-16T00:07:04.639Z,16.40
2018-10-16T00:09:08.097Z,16.40
2018-10-16T00:11:10.383Z,17.97
2018-10-16T00:13:12.597Z,20.23
2018-10-16T00:15:14.887Z,20.07
2018-10-16T00:17:17.179Z,19.40
2018-10-16T00:19:19.382Z,17.77
2018-10-16T00:21:21.618Z,17.63
2018-10-16T00:23:23.932Z,18.70
2018-10-16T00:25:26.164Z,20.37
2018-10-16T00:27:28.428Z,17.13
2018-10-16T00:29:30.799Z,21.00
2018-10-16T00:31:33.023Z,19.40
2018-10-16T00:33:35.250Z,22.80
2018-10-16T00:35:37.969Z,20.50
2018-10-16T00:37:40.193Z,17.60
2018-10-16T00:39:42.434Z,19.67
2018-10-16T00:41:49.472Z,19.87
2018-10-16T00:43:51.726Z,17.83
2018-10-16T00:45:54.011Z,16.97
2018-10-16T00:47:56.275Z,18.30
2018-10-16T00:49:58.491Z,18.50
2018-10-16T00:52:00.878Z,19.90
2018-10-16T00:54:03.100Z,19.73
2018-10-16T00:56:05.347Z,18.80
2018-10-16T00:58:07.530Z,16.43
2018-10-16T01:00:10.838Z,27.50
2018-10-16T01:02:13.051Z,19.07
2018-10-16T01:04:15.370Z,18.70
2018-10-16T01:06:17.650Z,19.70
2018-10-16T01:08:19.887Z,19.67
2018-10-16T01:10:22.354Z,18.93
2018-10-16T01:12:24.635Z,18.07
2018-10-16T01:14:26.899Z,18.97
2018-10-16T01:16:29.178Z,22.73
2018-10-16T01:18:31.477Z,20.47
2018-10-16T01:20:33.752Z,19.30
2018-10-16T01:22:36.279Z,19.90
2018-10-16T01:24:38.488Z,18.80
2018-10-16T01:26:40.728Z,18.93
2018-10-16T01:28:42.955Z,18.60
2018-10-16T01:30:45.151Z,20.17
2018-10-16T01:32:47.330Z,22.53
2018-10-16T01:34:49.536Z,23.07
2018-10-16T01:36:51.738Z,24.30
2018-10-16T01:38:54.000Z,24.17
2018-10-16T01:40:56.248Z,19.10
2018-10-16T01:42:58.500Z,18.33
2018-10-16T01:45:00.753Z,20.93
2018-10-16T01:47:02.923Z,20.60
2018-10-16T01:49:05.332Z,20.23
2018-10-16T01:51:07.941Z,19.07
2018-10-16T01:53:10.178Z,20.93
2018-10-16T01:55:12.433Z,19.53
2018-10-16T01:57:14.701Z,26.07
2018-10-16T01:59:16.942Z,18.90
2018-10-16T02:01:19.139Z,18.43
2018-10-16T02:03:22.127Z,22.00
2018-10-16T02:05:24.692Z,28.10
2018-10-16T02:07:26.911Z,19.03
2018-10-16T02:09:29.182Z,19.30
2018-10-16T02:11:31.375Z,24.70
2018-10-16T02:13:33.604Z,20.70
2018-10-16T02:15:36.259Z,20.87
2018-10-16T02:17:39.439Z,19.00
2018-10-16T02:19:41.709Z,21.03
2018-10-16T02:21:43.999Z,19.93
2018-10-16T02:23:46.206Z,19.00
2018-10-16T02:25:48.443Z,23.80
2018-10-16T02:27:50.724Z,19.50
2018-10-16T02:29:52.953Z,20.57
2018-10-16T02:34:04.662Z,21.80
2018-10-16T02:36:06.918Z,19.40
2018-10-16T02:38:09.165Z,19.63
2018-10-16T02:40:11.424Z,20.33
2018-10-16T02:46:36.711Z,23.73
2018-10-16T02:48:39.548Z,21.50
2018-10-16T02:50:41.932Z,23.10
2018-10-16T02:52:44.174Z,21.47
2018-10-16T02:54:46.397Z,19.10
2018-10-16T02:56:48.675Z,20.10
2018-10-16T02:58:50.914Z,23.00
2018-10-16T03:00:53.430Z,22.50
2018-10-16T03:02:55.628Z,19.60
2018-10-16T03:04:57.878Z,21.03
2018-10-16T03:07:00.151Z,21.03
2018-10-16T03:09:02.448Z,23.67
2018-10-16T03:11:05.086Z,21.33
2018-10-16T03:13:07.510Z,22.70
2018-10-16T03:15:11.546Z,21.47
2018-10-16T03:17:13.803Z,21.57
2018-10-16T03:32:10.216Z,22.87
2018-10-16T03:34:12.488Z,21.17
2018-10-16T03:36:14.679Z,21.67
2018-10-16T03:38:16.852Z,21.80
2018-10-16T03:40:19.098Z,21.33
2018-10-16T03:42:21.417Z,22.57
2018-10-16T03:44:23.656Z,21.60
2018-10-16T03:46:26.123Z,20.67
2018-10-16T03:48:28.346Z,21.73
2018-10-16T03:50:30.562Z,21.63
2018-10-16T03:52:33.131Z,21.20
2018-10-16T03:54:35.407Z,21.93
2018-10-16T03:56:37.695Z,23.63
2018-10-16T03:58:39.933Z,20.73
2018-10-16T04:00:42.419Z,22.60
2018-10-16T04:02:44.783Z,21.93
2018-10-16T04:04:46.972Z,20.27
2018-10-16T04:06:49.200Z,21.77
2018-10-16T04:08:52.389Z,21.20
2018-10-16T04:10:54.752Z,22.67
2018-10-16T04:12:56.996Z,21.00
2018-10-16T04:14:59.337Z,23.03
2018-10-16T04:17:01.794Z,22.30
2018-10-16T04:19:04.796Z,22.70
2018-10-16T04:21:07.859Z,23.37
2018-10-16T04:23:10.293Z,22.47
2018-10-16T04:25:12.525Z,24.83
2018-10-16T04:27:14.911Z,20.20
2018-10-16T04:29:17.236Z,25.33
2018-10-16T04:31:19.343Z,23.13
2018-10-16T04:33:21.656Z,21.30
2018-10-16T04:35:24.041Z,25.80
2018-10-16T04:37:26.376Z,22.20
2018-10-16T04:39:28.672Z,20.47
2018-10-16T04:41:32.048Z,26.07
2018-10-16T04:43:34.253Z,22.17
2018-10-16T04:45:37.188Z,30.17
2018-10-16T04:47:39.949Z,21.17
2018-10-16T04:49:42.200Z,25.77
2018-10-16T04:51:44.430Z,19.83
2018-10-16T04:53:47.304Z,21.90
2018-10-16T04:55:51.373Z,20.50
2018-10-16T04:57:54.492Z,22.70
2018-10-16T04:59:56.864Z,21.20
2018-10-16T05:01:59.183Z,23.27
2018-10-16T05:04:01.515Z,23.37
2018-10-16T05:06:03.845Z,23.00
2018-10-16T05:08:08.246Z,21.90
2018-10-16T05:10:14.449Z,21.10
2018-10-16T05:12:19.545Z,21.60
2018-10-16T05:14:22.204Z,22.67
2018-10-16T05:16:24.667Z,26.23
2018-10-16T05:18:26.768Z,22.70
2018-10-16T05:38:41.567Z,27.50
2018-10-16T05:40:43.712Z,26.90
2018-10-16T05:42:45.838Z,27.43
2018-10-16T05:44:47.973Z,26.47
2018-10-16T05:46:50.119Z,27.07
2018-10-16T05:48:52.278Z,25.97
2018-10-16T05:50:54.410Z,27.23
2018-10-16T05:52:56.527Z,28.33
2018-10-16T05:54:58.698Z,26.63
2018-10-16T05:57:00.814Z,26.20
2018-10-16T05:59:03.004Z,23.33
2018-10-16T06:01:05.259Z,25.67
2018-10-16T06:03:07.547Z,23.43
2018-10-16T06:05:10.205Z,24.40
2018-10-16T06:07:12.346Z,26.30
2018-10-16T06:09:14.523Z,22.30
2018-10-16T06:11:16.930Z,26.20
2018-10-16T06:13:19.046Z,24.07
2018-10-16T06:15:21.177Z,27.37
2018-10-16T06:17:23.330Z,25.00
2018-10-16T06:19:25.472Z,27.30
2018-10-16T06:21:27.617Z,22.37
2018-10-16T06:23:29.779Z,20.33
2018-10-16T06:25:31.926Z,21.20
2018-10-16T06:27:34.062Z,22.20
2018-10-16T06:29:36.199Z,22.30
2018-10-16T06:31:38.364Z,28.73
2018-10-16T06:33:40.750Z,27.63
2018-10-16T06:35:42.890Z,26.83
2018-10-16T06:37:45.015Z,23.17
2018-10-16T06:39:47.146Z,21.07
2018-10-16T06:41:49.519Z,21.33
2018-10-16T06:43:52.056Z,22.40
2018-10-16T06:45:54.269Z,24.50
2018-10-16T06:47:56.411Z,21.93
2018-10-16T06:49:58.550Z,21.33
2018-10-16T06:52:00.840Z,25.53
2018-10-16T06:54:03.014Z,27.60
2018-10-16T06:56:05.546Z,22.10
2018-10-16T06:58:07.690Z,23.17
2018-10-16T07:00:09.846Z,22.23
2018-10-16T07:02:11.968Z,23.80
2018-10-16T07:04:14.331Z,25.40
2018-10-16T07:06:16.453Z,26.20
2018-10-16T07:08:18.594Z,24.87
2018-10-16T07:10:20.942Z,28.90
2018-10-16T07:12:23.090Z,27.33
2018-10-16T07:14:25.303Z,27.90
2018-10-16T07:16:27.975Z,25.87
2018-10-16T07:18:30.101Z,23.87
2018-10-16T07:20:32.225Z,26.77
2018-10-16T07:22:34.528Z,23.63
2018-10-16T07:24:36.651Z,27.07
2018-10-16T07:26:38.778Z,25.30
2018-10-16T07:28:40.954Z,25.23
2018-10-16T07:30:43.095Z,27.23
2018-10-16T07:32:45.248Z,26.23
2018-10-16T07:34:47.429Z,26.27
2018-10-16T07:36:49.843Z,28.50
2018-10-16T07:38:52.078Z,28.03
2018-10-16T07:40:54.098Z,25.67
2018-10-16T07:42:56.223Z,27.47
2018-10-16T07:44:58.380Z,30.27
2018-10-16T07:47:00.526Z,31.10
2018-10-16T07:49:02.696Z,24.60
2018-10-16T07:51:05.490Z,27.63
2018-10-16T07:53:07.659Z,35.40
2018-10-16T07:55:12.950Z,28.63
2018-10-16T07:57:15.170Z,25.27
2018-10-16T07:59:17.346Z,27.63
2018-10-16T08:01:19.714Z,24.90
2018-10-16T08:03:21.878Z,25.40
2018-10-16T08:05:24.008Z,29.67
2018-10-16T08:07:26.367Z,25.50
2018-10-16T08:09:28.513Z,29.27
2018-10-16T08:11:30.745Z,31.70
2018-10-16T08:13:32.850Z,28.10
2018-10-16T08:15:35.135Z,26.37
2018-10-16T08:17:37.362Z,29.30
2018-10-16T08:19:39.634Z,29.50
2018-10-16T08:21:42.190Z,27.50
2018-10-16T08:23:44.319Z,27.47
2018-10-16T08:25:46.618Z,30.50
2018-10-16T08:27:48.742Z,26.90
2018-10-16T08:29:50.866Z,31.20
2018-10-16T08:31:53.245Z,27.63
2018-10-16T08:33:55.475Z,29.80
2018-10-16T08:35:57.625Z,31.23
2018-10-16T08:38:35.877Z,30.93
2018-10-16T08:40:38.047Z,34.83
2018-10-16T08:43:23.379Z,29.40
2018-10-16T08:45:37.063Z,30.27
2018-10-16T08:47:50.718Z,28.40
2018-10-16T08:50:04.362Z,31.73
2018-10-16T08:52:06.482Z,32.20
2018-10-16T08:54:09.014Z,31.33
2018-10-16T08:56:11.263Z,34.90
2018-10-16T08:58:13.367Z,27.60
2018-10-16T09:00:15.538Z,31.27
2018-10-16T09:02:17.675Z,27.57
2018-10-16T09:04:19.847Z,29.67
2018-10-16T09:06:21.982Z,32.63
2018-10-16T09:08:24.255Z,29.13
2018-10-16T09:10:26.855Z,29.33
2018-10-16T09:12:30.122Z,37.43
2018-10-16T09:14:32.367Z,30.63
2018-10-16T09:16:34.434Z,30.90
2018-10-16T09:18:36.834Z,28.93
2018-10-16T09:20:39.043Z,29.50
2018-10-16T09:22:41.210Z,28.50
2018-10-16T09:24:43.394Z,33.80
2018-10-16T09:26:45.600Z,31.83
2018-10-16T09:28:47.773Z,33.47
2018-10-16T09:30:49.979Z,35.10
2018-10-16T09:32:52.459Z,30.43
2018-10-16T09:34:54.669Z,29.20
2018-10-16T09:36:56.850Z,28.77
2018-10-16T09:38:59.030Z,28.63
2018-10-16T09:41:01.200Z,31.87
2018-10-16T09:43:03.570Z,29.77
2018-10-16T09:45:06.384Z,30.87
2018-10-16T09:47:08.771Z,29.80
2018-10-16T09:49:10.930Z,33.23
2018-10-16T09:51:13.043Z,31.57
2018-10-16T09:53:15.217Z,31.63
2018-10-16T09:55:17.392Z,30.47
2018-10-16T09:57:19.581Z,31.97
2018-10-16T09:59:21.795Z,31.60
2018-10-16T10:01:29.698Z,37.90
2018-10-16T10:03:31.875Z,30.90
2018-10-16T10:05:34.382Z,40.20
2018-10-16T10:07:36.543Z,32.53
2018-10-16T10:09:38.688Z,37.20
2018-10-16T10:11:41.008Z,36.30
2018-10-16T10:13:43.166Z,30.83
2018-10-16T10:15:45.330Z,34.23
2018-10-16T10:17:47.726Z,30.27
2018-10-16T10:19:49.876Z,35.30
2018-10-16T10:21:52.106Z,36.50
2018-10-16T10:23:54.324Z,32.27
2018-10-16T10:25:56.484Z,30.47
2018-10-16T10:27:58.823Z,35.93
2018-10-16T10:30:01.481Z,28.83
2018-10-16T10:32:04.465Z,34.30
2018-10-16T10:34:06.606Z,33.80
2018-10-16T10:36:08.840Z,32.83
2018-10-16T10:38:11.892Z,35.20
2018-10-16T10:40:14.046Z,31.63
2018-10-16T10:42:16.252Z,34.87
2018-10-16T10:44:18.371Z,34.60
2018-10-16T10:46:20.516Z,35.40
2018-10-16T10:48:22.700Z,40.93
2018-10-16T10:50:25.153Z,33.27
2018-10-16T10:52:29.044Z,30.93
2018-10-16T10:54:31.222Z,32.10
2018-10-16T10:56:33.484Z,28.60
2018-10-16T10:58:35.558Z,28.50
2018-10-16T11:00:37.836Z,31.07
2018-10-16T11:02:40.722Z,34.87
2018-10-16T11:04:42.838Z,35.03
2018-10-16T11:06:45.009Z,40.03
2018-10-16T11:08:47.371Z,33.27
2018-10-16T11:10:49.558Z,29.93
2018-10-16T11:12:51.708Z,31.93
2018-10-16T11:14:53.932Z,28.70
2018-10-16T11:16:56.078Z,26.53
2018-10-16T11:18:58.203Z,30.87
2018-10-16T11:21:00.635Z,32.43
2018-10-16T11:23:02.755Z,31.33
2018-10-16T11:25:05.835Z,27.03
2018-10-16T11:27:07.999Z,36.53
2018-10-16T11:29:10.176Z,30.17
2018-10-16T11:31:12.414Z,30.03
2018-10-16T11:33:14.602Z,28.17
2018-10-16T11:35:16.792Z,29.50
2018-10-16T11:37:19.193Z,27.00
2018-10-16T11:39:21.365Z,28.80
2018-10-16T11:41:23.513Z,23.87
2018-10-16T11:43:25.686Z,23.00
2018-10-16T11:45:27.794Z,23.63
2018-10-16T11:47:29.929Z,23.90
2018-10-16T11:49:32.105Z,22.30
2018-10-16T11:51:34.538Z,21.00
2018-10-16T11:53:36.807Z,21.60
2018-10-16T11:55:38.976Z,22.77
2018-10-16T11:57:41.162Z,22.53
2018-10-16T11:59:43.470Z,22.23
2018-10-16T12:01:45.607Z,21.53
2018-10-16T12:03:47.833Z,23.10
2018-10-16T12:05:50.318Z,22.80
2018-10-16T12:07:52.393Z,21.67
2018-10-16T12:09:54.536Z,20.87
2018-10-16T12:11:56.718Z,23.10
2018-10-16T12:13:58.887Z,24.13
2018-10-16T12:16:01.187Z,21.73
2018-10-16T12:18:09.353Z,26.40
2018-10-16T12:20:15.386Z,27.90
2018-10-16T12:22:17.509Z,21.83
2018-10-16T12:24:19.865Z,23.50
2018-10-16T12:26:22.031Z,23.63
2018-10-16T12:28:24.202Z,22.07
2018-10-16T12:30:26.337Z,21.90
2018-10-16T12:32:28.503Z,22.83
2018-10-16T12:34:30.640Z,22.87
2018-10-16T12:36:32.875Z,23.70
2018-10-16T12:38:35.421Z,22.07
2018-10-16T12:40:37.539Z,26.03
2018-10-16T12:42:39.750Z,23.03
2018-10-16T12:44:41.863Z,23.63
2018-10-16T12:46:44.199Z,24.13
2018-10-16T12:48:46.362Z,28.30
2018-10-16T12:50:48.498Z,22.30
2018-10-16T12:52:50.681Z,20.87
2018-10-16T12:54:52.771Z,23.23
2018-10-16T12:56:55.373Z,23.40
2018-10-16T12:58:57.403Z,22.73
2018-10-16T13:00:59.526Z,26.73
2018-10-16T13:03:02.038Z,27.57
2018-10-16T13:05:05.263Z,24.50
2018-10-16T13:07:12.974Z,23.37
2018-10-16T13:09:15.347Z,22.97
2018-10-16T13:11:17.531Z,21.77
2018-10-16T13:13:19.588Z,20.40
2018-10-16T13:15:21.752Z,21.63
2018-10-16T13:17:23.984Z,23.30
2018-10-16T13:19:26.076Z,19.77
2018-10-16T13:21:28.193Z,20.73
2018-10-16T13:23:30.382Z,19.57
2018-10-16T13:25:32.530Z,21.23
2018-10-16T13:27:34.763Z,20.57
2018-10-16T13:29:37.215Z,19.10
2018-10-16T13:31:39.616Z,19.97
2018-10-16T13:33:41.730Z,17.73
2018-10-16T13:35:43.893Z,17.30
2018-10-16T13:37:46.673Z,18.30
2018-10-16T13:39:48.895Z,18.93
2018-10-16T13:41:51.038Z,17.00
2018-10-16T13:43:53.533Z,18.20
2018-10-16T13:45:55.772Z,18.10
2018-10-16T13:47:57.837Z,18.27
2018-10-16T13:50:00.528Z,16.77
2018-10-16T13:52:02.725Z,17.77
2018-10-16T13:54:04.986Z,18.00
2018-10-16T13:56:07.840Z,18.07
2018-10-16T13:58:09.991Z,20.27
2018-10-16T14:00:14.495Z,19.77
2018-10-16T14:02:16.886Z,18.73
2018-10-16T14:04:19.026Z,19.87
2018-10-16T14:06:21.155Z,22.30
2018-10-16T14:08:23.526Z,20.60
2018-10-16T14:10:25.702Z,23.23
2018-10-16T14:12:27.858Z,24.23
2018-10-16T14:14:30.094Z,20.73
2018-10-16T14:16:32.259Z,21.90
2018-10-16T14:18:34.358Z,25.07
2018-10-16T14:20:36.567Z,22.00
2018-10-16T14:22:39.925Z,21.80
2018-10-16T14:24:42.071Z,24.60
2018-10-16T14:26:44.219Z,25.53
2018-10-16T14:28:46.348Z,27.87
2018-10-16T14:30:48.657Z,29.77
2018-10-16T14:32:51.062Z,25.30
2018-10-16T14:34:53.202Z,22.47
2018-10-16T14:36:55.686Z,28.77
2018-10-16T14:38:58.198Z,26.17
2018-10-16T14:41:00.310Z,22.97
2018-10-16T14:43:02.578Z,23.87
2018-10-16T14:45:05.872Z,22.33
2018-10-16T14:47:08.028Z,22.67
2018-10-16T14:49:10.185Z,23.00
2018-10-16T14:51:12.702Z,22.50
2018-10-16T14:53:14.835Z,23.80
2018-10-16T14:55:17.018Z,25.10
2018-10-16T14:57:19.617Z,22.63
2018-10-16T14:59:22.121Z,21.27
2018-10-16T15:01:24.255Z,23.43
2018-10-16T15:03:26.394Z,25.43
2018-10-16T15:05:28.562Z,24.30
2018-10-16T15:07:30.690Z,24.33
2018-10-16T15:09:32.840Z,25.00
2018-10-16T15:11:34.982Z,23.97
2018-10-16T15:13:37.247Z,21.93
2018-10-16T15:15:39.415Z,26.77
2018-10-16T15:17:41.622Z,25.07
2018-10-16T15:19:57.010Z,22.33
2018-10-16T15:21:59.673Z,21.70
2018-10-16T15:24:01.821Z,22.50
2018-10-16T15:26:04.530Z,27.87
2018-10-16T15:28:06.715Z,27.60
2018-10-16T15:30:09.275Z,22.37
2018-10-16T15:32:11.456Z,23.87
2018-10-16T15:34:13.578Z,23.00
2018-10-16T15:36:15.759Z,25.73
2018-10-16T15:38:17.846Z,28.30
2018-10-16T15:40:20.004Z,29.93
2018-10-16T15:42:22.694Z,27.50
2018-10-16T15:44:25.172Z,23.43
2018-10-16T15:46:27.274Z,25.60
2018-10-16T15:48:29.409Z,24.70
2018-10-16T15:50:31.532Z,24.70
2018-10-16T15:52:33.631Z,24.23
2018-10-16T15:54:35.758Z,24.70
2018-10-16T15:56:37.880Z,25.40
2018-10-16T15:58:40.006Z,24.47
2018-10-16T16:00:42.313Z,26.30
2018-10-16T16:02:44.471Z,25.07
2018-10-16T16:04:46.869Z,27.87
2018-10-16T16:06:49.002Z,23.23
2018-10-16T16:08:51.144Z,24.17
2018-10-16T16:10:53.286Z,24.17
2018-10-16T16:12:55.760Z,24.83
2018-10-16T16:14:57.872Z,26.13
2018-10-16T16:16:59.991Z,26.97
2018-10-16T16:19:02.622Z,27.20
2018-10-16T16:21:05.154Z,27.67
2018-10-16T16:23:07.263Z,27.23
2018-10-16T16:25:10.883Z,28.70
2018-10-16T16:27:13.006Z,30.60
2018-10-16T16:29:15.138Z,31.33
2018-10-16T16:31:20.290Z,35.60
2018-10-16T16:33:22.578Z,32.40
2018-10-16T16:35:24.702Z,35.77
2018-10-16T16:37:26.836Z,31.77
2018-10-16T16:39:29.062Z,30.43
2018-10-16T16:41:31.091Z,29.20
2018-10-16T16:43:33.275Z,30.63
2018-10-16T16:45:35.391Z,29.90
2018-10-16T16:47:37.760Z,28.03
2018-10-16T16:49:39.894Z,25.33
2018-10-16T16:51:43.661Z,29.37
2018-10-16T16:53:46.068Z,29.33
2018-10-16T16:55:49.588Z,34.43
2018-10-16T16:57:57.634Z,40.80
2018-10-16T16:59:59.787Z,32.30
2018-10-16T17:02:01.998Z,32.57
2018-10-16T17:04:04.426Z,34.70
2018-10-16T17:06:06.820Z,29.30
2018-10-16T17:08:09.027Z,32.53
2018-10-16T17:10:11.178Z,32.10
2018-10-16T17:12:13.427Z,27.60
2018-10-16T17:14:15.700Z,33.80
2018-10-16T17:16:17.891Z,32.10
2018-10-16T17:18:20.218Z,36.00
2018-10-16T17:20:22.448Z,41.20
2018-10-16T17:22:24.551Z,62.30
2018-10-16T17:24:27.083Z,53.37
2018-10-16T17:26:29.469Z,67.97
2018-10-16T17:28:31.691Z,52.43
2018-10-16T17:30:33.874Z,39.63
2018-10-16T17:32:36.215Z,42.60
2018-10-16T17:34:38.353Z,89.40
2018-10-16T17:36:40.782Z,98.57
2018-10-16T17:38:43.622Z,78.83
2018-10-16T17:40:46.577Z,38.50
2018-10-16T17:42:48.751Z,35.83
2018-10-16T17:44:51.010Z,32.13
2018-10-16T17:46:53.299Z,42.63
2018-10-16T17:48:55.472Z,37.73
2018-10-16T17:50:57.759Z,35.70
2018-10-16T17:52:59.928Z,33.50
2018-10-16T17:55:02.235Z,40.53
2018-10-16T17:57:04.957Z,34.10
2018-10-16T17:59:07.088Z,35.20
2018-10-16T18:01:09.315Z,37.43
2018-10-16T18:03:11.578Z,33.63
2018-10-16T18:05:14.199Z,32.70
2018-10-16T18:07:16.400Z,36.80
2018-10-16T18:09:18.981Z,44.30
2018-10-16T18:11:21.374Z,38.63
2018-10-16T18:13:23.559Z,39.47
2018-10-16T18:15:25.796Z,34.37
2018-10-16T18:17:27.998Z,41.83
2018-10-16T18:19:30.233Z,34.80
2018-10-16T18:21:32.491Z,51.07
2018-10-16T18:23:34.838Z,79.37
2018-10-16T18:25:37.011Z,115.23
2018-10-16T18:27:39.853Z,84.63
2018-10-16T18:29:42.083Z,67.50
2018-10-16T18:31:44.254Z,223.40
2018-10-16T18:33:46.449Z,133.80
2018-10-16T18:35:48.640Z,71.10
2018-10-16T18:37:50.937Z,117.03
2018-10-16T18:39:53.145Z,50.97
2018-10-16T18:41:55.368Z,39.80
2018-10-16T18:43:57.556Z,56.07
2018-10-16T18:45:59.856Z,83.23
2018-10-16T18:48:02.077Z,63.93
2018-10-16T18:50:05.519Z,63.70
2018-10-16T18:52:07.735Z,58.03
2018-10-16T18:54:09.994Z,49.63
2018-10-16T18:56:12.167Z,38.40
2018-10-16T18:58:14.481Z,45.23
2018-10-16T19:00:17.791Z,42.60
2018-10-16T19:02:20.067Z,37.70
2018-10-16T19:04:22.243Z,35.63
2018-10-16T19:06:24.444Z,35.50
2018-10-16T19:08:26.782Z,40.70
2018-10-16T19:10:29.028Z,37.97
2018-10-16T19:12:31.218Z,39.70
2018-10-16T19:14:33.848Z,39.80
2018-10-16T19:16:36.259Z,42.87
2018-10-16T19:18:38.439Z,44.73
2018-10-16T19:20:40.701Z,40.37
2018-10-16T19:22:43.842Z,40.03
2018-10-16T19:24:46.434Z,44.30
2018-10-16T19:26:48.669Z,43.03
2018-10-16T19:28:52.456Z,44.33
2018-10-16T19:30:54.635Z,43.27
2018-10-16T19:32:57.208Z,45.77
2018-10-16T19:34:59.517Z,40.30
2018-10-16T19:37:01.868Z,44.43
2018-10-16T19:39:07.541Z,40.77
2018-10-16T19:41:09.946Z,44.63
2018-10-16T19:43:12.378Z,43.10
2018-10-16T19:45:14.782Z,41.23
2018-10-16T19:47:17.054Z,36.93
2018-10-16T19:49:19.397Z,44.27
2018-10-16T19:51:21.957Z,46.60
2018-10-16T19:53:24.187Z,39.30
2018-10-16T19:55:26.388Z,56.20
2018-10-16T19:57:28.708Z,48.60
2018-10-16T19:59:30.936Z,73.60
2018-10-16T20:01:33.479Z,56.40
2018-10-16T20:03:35.798Z,92.57
2018-10-16T20:05:39.250Z,50.37
2018-10-16T20:07:42.765Z,49.40
2018-10-16T20:09:46.712Z,45.67
2018-10-16T20:11:51.113Z,44.77
2018-10-16T20:13:53.547Z,40.40
2018-10-16T20:15:55.783Z,41.57
2018-10-16T20:17:58.012Z,38.53
2018-10-16T20:20:00.211Z,34.27
2018-10-16T20:22:02.419Z,35.33
2018-10-16T20:24:05.011Z,42.50
2018-10-16T20:26:07.900Z,44.23
2018-10-16T20:28:10.095Z,50.37
2018-10-16T20:30:12.331Z,38.07
2018-10-16T20:32:14.966Z,37.97
2018-10-16T20:34:17.145Z,44.60
2018-10-16T20:36:19.503Z,44.80
2018-10-16T20:38:21.675Z,47.23
2018-10-16T20:40:23.940Z,48.70
2018-10-16T20:42:26.131Z,49.20
2018-10-16T20:44:28.571Z,48.63
2018-10-16T20:46:30.902Z,53.27
2018-10-16T20:48:33.083Z,45.63
2018-10-16T20:50:35.344Z,48.87
2018-10-16T20:52:38.136Z,45.13
2018-10-16T20:54:40.496Z,49.60
2018-10-16T20:56:43.290Z,44.90
2018-10-16T20:58:45.601Z,47.00
2018-10-16T21:00:48.695Z,48.93
2018-10-16T21:02:50.993Z,47.77
2018-10-16T21:04:53.541Z,47.47
2018-10-16T21:06:57.018Z,45.40
2018-10-16T21:09:01.274Z,49.23
2018-10-16T21:11:04.131Z,50.93
2018-10-16T21:13:06.411Z,53.53
2018-10-16T21:15:09.532Z,53.27
2018-10-16T21:17:11.991Z,59.60
2018-10-16T21:19:14.279Z,61.83
2018-10-16T21:21:16.675Z,56.67
2018-10-16T21:23:19.292Z,65.70
2018-10-16T21:25:21.550Z,57.40
2018-10-16T21:27:23.759Z,60.33
2018-10-16T21:29:26.072Z,58.90
2018-10-16T21:31:28.685Z,50.33
2018-10-16T21:33:30.882Z,42.90
2018-10-16T21:35:33.233Z,40.67
2018-10-16T21:37:35.498Z,55.60
2018-10-16T21:39:37.730Z,49.53
2018-10-16T21:41:39.923Z,56.00
2018-10-16T21:43:42.340Z,58.80
2018-10-16T21:45:44.685Z,54.13
2018-10-16T21:47:46.850Z,54.07
2018-10-16T21:49:49.016Z,57.57
2018-10-16T21:51:51.534Z,57.57
2018-10-16T21:53:53.695Z,57.33
2018-10-16T21:55:55.851Z,60.70
2018-10-16T21:57:58.023Z,50.03
2018-10-16T22:00:00.466Z,43.57
2018-10-16T22:02:08.498Z,47.40
2018-10-16T22:04:10.666Z,53.00
2018-10-16T22:06:12.850Z,58.53
2018-10-16T22:08:15.100Z,47.10
2018-10-16T22:10:17.267Z,48.10
2018-10-16T22:12:19.461Z,50.80
2018-10-16T22:14:21.614Z,46.40
2018-10-16T22:16:23.776Z,50.70
2018-10-16T22:18:26.149Z,45.13
2018-10-16T22:20:28.338Z,46.57
2018-10-16T22:22:30.508Z,47.33
2018-10-16T22:24:32.694Z,46.17
2018-10-16T22:26:34.867Z,52.60
2018-10-16T22:28:37.052Z,49.40
2018-10-16T22:30:39.450Z,46.93
2018-10-16T22:32:41.664Z,49.07
2018-10-16T22:34:43.827Z,52.53
2018-10-16T22:36:46.223Z,49.07
2018-10-16T22:38:48.387Z,46.83
2018-10-16T22:40:50.573Z,46.37
2018-10-16T22:42:53.027Z,40.70
2018-10-16T22:44:55.199Z,41.87
2018-10-16T22:46:57.400Z,48.47
2018-10-16T22:48:59.687Z,46.73
2018-10-16T22:51:01.935Z,49.20
2018-10-16T22:53:04.333Z,51.13
2018-10-16T22:55:07.474Z,50.50
2018-10-16T22:57:09.686Z,63.90
2018-10-16T22:59:12.029Z,56.50
2018-10-16T23:01:14.269Z,56.67
2018-10-16T23:03:16.318Z,55.83
2018-10-16T23:05:18.514Z,53.30
2018-10-16T23:07:21.075Z,54.13
2018-10-16T23:09:23.359Z,55.20
2018-10-16T23:11:25.623Z,46.10
2018-10-16T23:13:27.808Z,52.00
2018-10-16T23:15:30.026Z,51.37
2018-10-16T23:17:32.252Z,52.67
2018-10-16T23:19:34.531Z,59.33
2018-10-16T23:21:36.758Z,56.63
2018-10-16T23:23:39.039Z,55.57
2018-10-16T23:25:41.229Z,52.47
2018-10-16T23:27:43.399Z,47.70
2018-10-16T23:29:45.607Z,55.50
2018-10-16T23:31:47.866Z,49.40
2018-10-16T23:33:50.032Z,53.87
2018-10-16T23:35:52.204Z,52.30
2018-10-16T23:37:54.700Z,53.83
2018-10-16T23:39:56.874Z,52.13
2018-10-16T23:41:59.073Z,52.57
2018-10-16T23:44:01.236Z,51.87
2018-10-16T23:46:03.802Z,50.87
2018-10-16T23:48:05.967Z,49.80
2018-10-16T23:50:08.216Z,51.53
2018-10-16T23:52:10.396Z,48.33
2018-10-16T23:54:12.711Z,43.23
2018-10-16T23:56:14.934Z,43.43
2018-10-16T23:58:17.170Z,53.10
